Juigalpa, Nicaragua
Current Conditions -  °F | °C
As of 10:00 PM on Monday 20 Oct 2014 (Local Time) from MNMG Reporting Station
Few Clouds Few Clouds  
Wind Chill: 75°   Ceiling: Unl
Heat Index: 75°   Visibility: 6mi
Dew Point: 72°   Wind: 5mph
Humidity: 89%   Direction: 120°ESE
Pressure: 29.83"   Gusts: NA
Location:  12.08°N, 85.4°W
Report Text: MNMG 210400Z 12004KT 9999 FEW020CB 24/22 Q1010 A2984 CB/SW/NW/NE/E/SE TEMPO 7000 RA
Loading
Personal Weather Stations






























Interactive Weather Map
Tropical Storm Tracking
New forecast layout! Learn more

10-Day Weather Forecast

Advertisements
Track Severe Weather on mobile